Time;durP1;ratioP1;P1;durP2;ratioP2;P2;SDS_P1;SDS_P2;PMS_P1;PMS_P2;Temp;Humidity;BMP_temperature;BMP_pressure;BME280_temperature;BME280_humidity;BME280_pressure;Samples;Min_cycle;Max_cycle;Signal;HPM_P1;HPM_P2
2024/04/19 00:02:09;;;;;;;7.50;2.87;;;9.90;28.80;;;;;;5456186;26;20239;-85
2024/04/19 00:04:35;;;;;;;6.47;3.27;;;9.80;28.80;;;;;;5454308;26;20264;-93
2024/04/19 00:07:01;;;;;;;6.10;3.00;;;9.80;29.20;;;;;;5456127;26;20679;-91
2024/04/19 00:09:29;;;;;;;5.87;3.33;;;9.70;31.90;;;;;;5453862;26;20321;-84
2024/04/19 00:11:55;;;;;;;3.67;2.67;;;9.70;34.70;;;;;;5455151;26;20705;-87
2024/04/19 00:14:21;;;;;;;6.97;2.77;;;9.70;33.90;;;;;;5454336;26;20252;-84
2024/04/19 00:16:46;;;;;;;4.57;3.10;;;9.70;35.30;;;;;;5455948;26;20229;-86
2024/04/19 00:19:12;;;;;;;7.53;3.50;;;9.70;36.00;;;;;;5451861;26;20645;-85
2024/04/19 00:21:39;;;;;;;5.47;3.27;;;9.70;38.80;;;;;;5451476;26;20592;-93
2024/04/19 00:24:05;;;;;;;5.50;3.70;;;9.60;41.40;;;;;;5477370;26;20560;-92
2024/04/19 00:26:30;;;;;;;6.17;3.73;;;9.60;42.80;;;;;;5484986;26;20708;-87
2024/04/19 00:28:57;;;;;;;6.23;3.37;;;9.60;45.30;;;;;;5452213;26;20213;-93
2024/04/19 00:31:23;;;;;;;9.20;3.57;;;9.70;45.60;;;;;;5456612;26;20213;-84
2024/04/19 00:33:49;;;;;;;7.17;3.90;;;9.70;46.90;;;;;;5455787;26;20256;-84
2024/04/19 00:36:15;;;;;;;7.13;3.40;;;9.70;49.20;;;;;;5453983;26;20235;-85
2024/04/19 00:38:40;;;;;;;7.43;3.60;;;9.70;54.10;;;;;;5453673;26;20244;-92
2024/04/19 00:41:07;;;;;;;7.20;3.90;;;9.60;55.40;;;;;;5454988;26;20346;-88
2024/04/19 00:43:33;;;;;;;5.87;3.73;;;9.50;61.70;;;;;;5452692;26;20256;-89
2024/04/19 00:45:59;;;;;;;7.83;4.23;;;9.50;66.20;;;;;;5470091;26;20228;-91
2024/04/19 00:48:26;;;;;;;5.80;3.97;;;9.50;70.80;;;;;;5489202;26;20304;-92
2024/04/19 00:50:57;;;;;;;6.73;4.13;;;9.50;76.70;;;;;;5490495;26;20213;-93
2024/04/19 00:53:29;;;;;;;7.50;4.37;;;9.40;83.30;;;;;;5488484;26;20293;-91
2024/04/19 00:56:00;;;;;;;5.70;3.93;;;9.40;89.30;;;;;;5490223;26;20212;-90
2024/04/19 00:58:27;;;;;;;8.13;4.07;;;9.40;90.10;;;;;;5487542;26;20220;-85
2024/04/19 01:00:53;;;;;;;7.47;4.50;;;9.30;92.00;;;;;;5488585;26;20228;-89
2024/04/19 01:03:19;;;;;;;6.47;4.47;;;9.40;93.20;;;;;;5488860;26;20224;-88
2024/04/19 01:05:46;;;;;;;8.03;4.50;;;9.30;94.70;;;;;;5493325;26;20273;-84
2024/04/19 01:08:12;;;;;;;7.03;4.23;;;9.30;96.80;;;;;;5490541;26;20862;-84
2024/04/19 01:10:39;;;;;;;5.90;4.40;;;9.30;97.60;;;;;;5489172;26;20212;-85
2024/04/19 01:13:05;;;;;;;7.67;4.30;;;9.20;98.90;;;;;;5487331;26;20229;-85
2024/04/19 01:15:35;;;;;;;9.60;4.77;;;9.20;99.30;;;;;;5489894;26;20220;-86
2024/04/19 01:18:02;;;;;;;8.33;5.47;;;9.20;99.90;;;;;;5487613;26;20232;-91
2024/04/19 01:20:28;;;;;;;7.77;4.73;;;9.20;99.90;;;;;;5487286;26;20235;-92
2024/04/19 01:22:54;;;;;;;9.50;5.07;;;9.30;99.90;;;;;;5489769;26;20247;-84
2024/04/19 01:25:32;;;;;;;9.23;5.10;;;9.20;99.90;;;;;;5490245;26;20313;-83
2024/04/19 01:27:57;;;;;;;7.63;4.50;;;9.20;99.90;;;;;;5490431;26;20259;-91
2024/04/19 01:30:23;;;;;;;9.47;4.90;;;9.20;99.90;;;;;;5489428;26;20693;-93
2024/04/19 01:32:50;;;;;;;8.03;4.67;;;9.20;99.90;;;;;;5489213;26;20228;-90
2024/04/19 01:35:16;;;;;;;7.47;5.03;;;9.20;99.90;;;;;;5490108;26;20259;-86
2024/04/19 01:37:41;;;;;;;9.50;5.03;;;9.10;99.90;;;;;;5488751;26;20220;-89
2024/04/19 01:40:08;;;;;;;8.30;5.20;;;9.00;99.90;;;;;;5489444;26;20224;-89
2024/04/19 01:42:33;;;;;;;6.73;5.03;;;9.00;99.90;;;;;;5492088;26;20582;-93
2024/04/19 01:44:59;;;;;;;8.20;4.87;;;9.00;99.90;;;;;;5492774;26;20221;-88
2024/04/19 01:47:25;;;;;;;8.53;5.20;;;9.00;99.90;;;;;;5494245;26;20224;-88
2024/04/19 01:49:51;;;;;;;9.57;5.43;;;8.90;99.90;;;;;;5492365;26;20300;-84
2024/04/19 01:52:16;;;;;;;8.97;5.60;;;9.00;99.90;;;;;;5491738;26;20259;-85
2024/04/19 01:54:42;;;;;;;9.37;5.13;;;8.90;99.90;;;;;;5490779;26;20216;-89
2024/04/19 01:57:08;;;;;;;7.90;4.93;;;8.90;99.90;;;;;;5490301;26;20297;-93
2024/04/19 01:59:34;;;;;;;9.77;5.03;;;8.90;99.90;;;;;;5491708;26;20228;-85
2024/04/19 02:02:00;;;;;;;7.20;5.50;;;8.80;99.90;;;;;;5492364;26;20277;-84
2024/04/19 02:04:25;;;;;;;8.47;5.37;;;8.80;99.90;;;;;;5493686;26;20743;-86
2024/04/19 02:06:51;;;;;;;9.67;4.87;;;8.80;99.90;;;;;;5491895;26;20250;-88
2024/04/19 02:09:16;;;;;;;8.00;4.87;;;8.90;99.90;;;;;;5491168;26;20713;-86
2024/04/19 02:11:43;;;;;;;9.33;5.00;;;8.90;99.90;;;;;;5490491;26;20688;-92
2024/04/19 02:14:09;;;;;;;7.57;4.53;;;8.80;99.90;;;;;;5489821;26;20229;-85
2024/04/19 02:16:35;;;;;;;8.03;4.30;;;8.80;99.90;;;;;;5491291;26;20757;-85
2024/04/19 02:19:01;;;;;;;7.47;4.40;;;8.80;99.90;;;;;;5493060;26;20228;-90
2024/04/19 02:21:27;;;;;;;7.67;5.00;;;8.70;99.90;;;;;;5490667;26;20258;-90
2024/04/19 02:23:54;;;;;;;5.90;3.87;;;8.70;99.90;;;;;;5491736;26;20278;-87
2024/04/19 02:26:20;;;;;;;8.50;4.17;;;8.70;99.90;;;;;;5491920;26;20259;-90
2024/04/19 02:31:42;;;;;;;8.17;4.90;;;8.70;99.90;;;;;;5425782;26;20311;-87
2024/04/19 02:34:10;;;;;;;7.60;4.60;;;8.60;99.90;;;;;;5491467;26;20243;-92
2024/04/19 02:36:36;;;;;;;5.70;3.90;;;8.50;99.90;;;;;;5495143;26;20255;-83
2024/04/19 02:39:03;;;;;;;12.03;4.77;;;8.60;99.90;;;;;;5497919;26;20259;-84
2024/04/19 02:41:29;;;;;;;7.73;4.40;;;8.50;99.90;;;;;;5495162;26;20254;-90
2024/04/19 02:43:55;;;;;;;6.57;4.43;;;8.50;99.90;;;;;;5491381;26;20220;-84
2024/04/19 02:46:20;;;;;;;8.50;4.57;;;8.50;99.90;;;;;;5491017;26;20232;-88
2024/04/19 02:48:49;;;;;;;7.20;4.47;;;8.50;99.90;;;;;;5491119;26;20288;-90
2024/04/19 02:51:16;;;;;;;8.60;4.53;;;8.50;99.90;;;;;;5489758;26;20220;-91
2024/04/19 02:53:42;;;;;;;10.00;4.70;;;8.60;99.90;;;;;;5489628;26;20216;-84
2024/04/19 02:56:08;;;;;;;8.87;4.90;;;8.60;99.90;;;;;;5490563;26;20670;-91
2024/04/19 02:58:34;;;;;;;7.30;4.33;;;8.60;99.90;;;;;;5491947;26;20209;-85
2024/04/19 03:01:00;;;;;;;6.33;4.17;;;8.50;99.90;;;;;;5488475;26;20323;-86
2024/04/19 03:03:26;;;;;;;7.03;4.30;;;8.50;99.90;;;;;;5488289;26;20221;-85
2024/04/19 03:05:55;;;;;;;8.10;4.87;;;8.60;99.90;;;;;;5489975;26;20255;-87
2024/04/19 03:08:23;;;;;;;7.30;4.90;;;8.40;99.90;;;;;;5492346;26;20251;-85
2024/04/19 03:10:49;;;;;;;6.93;4.60;;;8.50;99.90;;;;;;5489735;26;20331;-84
2024/04/19 03:13:14;;;;;;;7.67;4.30;;;8.50;99.90;;;;;;5489335;26;20791;-91
2024/04/19 03:15:40;;;;;;;9.07;4.37;;;8.50;99.90;;;;;;5489859;26;20239;-91
2024/04/19 03:18:06;;;;;;;7.87;4.50;;;8.50;99.90;;;;;;5488575;26;20225;-92
2024/04/19 03:20:32;;;;;;;6.73;4.63;;;8.50;99.90;;;;;;5489337;26;20217;-85
2024/04/19 03:22:58;;;;;;;7.07;4.63;;;8.40;99.90;;;;;;5489009;26;20324;-87
2024/04/19 03:25:24;;;;;;;6.40;4.40;;;8.40;99.90;;;;;;5489999;26;20250;-88
2024/04/19 03:27:51;;;;;;;9.70;4.33;;;8.40;99.90;;;;;;5491880;26;20216;-85
2024/04/19 03:30:29;;;;;;;9.03;4.40;;;8.40;99.90;;;;;;5488321;26;20660;-85
2024/04/19 03:32:56;;;;;;;10.30;5.53;;;8.40;99.90;;;;;;5490329;26;20284;-89
2024/04/19 03:35:21;;;;;;;7.00;5.03;;;8.40;99.90;;;;;;5489762;26;20216;-88
2024/04/19 03:37:47;;;;;;;7.77;5.00;;;8.40;99.90;;;;;;5488954;26;20305;-86
2024/04/19 03:40:15;;;;;;;10.17;5.50;;;8.40;99.90;;;;;;5490624;26;20221;-85
2024/04/19 03:42:45;;;;;;;10.07;5.53;;;8.40;99.90;;;;;;5489593;26;20263;-89
2024/04/19 03:47:58;;;;;;;7.87;5.80;;;8.40;99.90;;;;;;5490096;26;20324;-84
2024/04/19 03:50:24;;;;;;;7.67;5.63;;;8.50;99.90;;;;;;5490495;26;20262;-88
2024/04/19 03:52:50;;;;;;;9.27;5.43;;;8.50;99.90;;;;;;5492098;26;20267;-85
2024/04/19 03:55:15;;;;;;;10.07;5.93;;;8.50;99.90;;;;;;5492360;26;20212;-90
2024/04/19 03:57:41;;;;;;;10.90;6.23;;;8.60;99.90;;;;;;5459727;26;20224;-91
2024/04/19 04:00:07;;;;;;;11.57;6.40;;;8.60;99.90;;;;;;5491659;26;20316;-86
2024/04/19 04:02:33;;;;;;;8.17;6.20;;;8.60;99.90;;;;;;5492806;26;20627;-87
2024/04/19 04:05:01;;;;;;;7.83;5.73;;;8.60;99.90;;;;;;5491958;26;20212;-85
2024/04/19 04:07:28;;;;;;;7.30;5.23;;;8.70;99.90;;;;;;5491653;26;20320;-88
2024/04/19 04:09:54;;;;;;;6.93;5.63;;;8.70;99.90;;;;;;5488077;26;20220;-85
2024/04/19 04:12:19;;;;;;;9.53;5.43;;;8.70;99.90;;;;;;5490012;26;20232;-85
2024/04/19 04:14:45;;;;;;;7.70;5.37;;;8.70;99.90;;;;;;5489104;26;20323;-89
2024/04/19 04:17:10;;;;;;;7.73;5.17;;;8.60;99.90;;;;;;5489148;26;20595;-85
2024/04/19 04:19:36;;;;;;;7.00;4.70;;;8.60;99.90;;;;;;5489128;26;20254;-92
2024/04/19 04:22:02;;;;;;;6.50;4.37;;;8.60;99.90;;;;;;5488700;26;20220;-88
2024/04/19 04:24:29;;;;;;;8.60;4.43;;;8.60;99.90;;;;;;5491373;26;20212;-89
2024/04/19 04:26:55;;;;;;;6.07;4.77;;;8.60;99.90;;;;;;5490442;26;20239;-86
2024/04/19 04:29:20;;;;;;;9.80;4.20;;;8.70;99.90;;;;;;5489887;26;20224;-89
2024/04/19 04:31:47;;;;;;;9.00;4.60;;;8.70;99.90;;;;;;5489832;26;20316;-91
2024/04/19 04:34:14;;;;;;;6.97;3.70;;;8.70;99.90;;;;;;5489946;26;20216;-87
2024/04/19 04:36:39;;;;;;;10.20;4.37;;;8.50;99.90;;;;;;5489544;26;20256;-88
2024/04/19 04:39:06;;;;;;;6.53;3.80;;;8.70;99.90;;;;;;5488904;26;20352;-88
2024/04/19 04:41:38;;;;;;;6.23;3.87;;;8.70;99.90;;;;;;5488351;26;20220;-91
2024/04/19 04:44:07;;;;;;;4.33;3.13;;;8.70;99.90;;;;;;5488794;26;20232;-92
2024/04/19 04:46:34;;;;;;;8.07;3.90;;;8.60;99.90;;;;;;5489404;26;20228;-86
2024/04/19 04:49:00;;;;;;;4.53;3.20;;;8.70;99.90;;;;;;5489162;26;20232;-92
2024/04/19 04:51:26;;;;;;;5.80;3.53;;;8.60;99.90;;;;;;5490257;26;20212;-91
2024/04/19 04:53:52;;;;;;;5.17;3.43;;;8.60;99.90;;;;;;5491399;26;20267;-87
2024/04/19 04:56:18;;;;;;;5.73;3.30;;;8.60;99.90;;;;;;5490488;26;20293;-89
2024/04/19 04:58:44;;;;;;;6.33;4.03;;;8.70;99.90;;;;;;5489977;26;20239;-86
2024/04/19 05:01:10;;;;;;;6.73;3.40;;;8.70;99.90;;;;;;5488571;26;20224;-91
2024/04/19 05:03:36;;;;;;;6.00;3.40;;;8.70;99.90;;;;;;5487989;26;20220;-91
2024/04/19 05:06:02;;;;;;;6.07;3.60;;;8.70;99.90;;;;;;5488578;26;20224;-85
2024/04/19 05:08:28;;;;;;;5.70;3.70;;;8.70;99.90;;;;;;5490156;26;20264;-88
2024/04/19 05:10:54;;;;;;;4.77;3.30;;;8.70;99.90;;;;;;5487360;26;20258;-88
2024/04/19 05:13:20;;;;;;;5.53;3.70;;;8.70;99.90;;;;;;5488685;26;20228;-90
2024/04/19 05:15:49;;;;;;;4.40;3.50;;;8.70;99.90;;;;;;5491525;26;20632;-86
2024/04/19 05:18:18;;;;;;;5.63;3.67;;;8.70;99.90;;;;;;5493157;26;20400;-90
2024/04/19 05:20:46;;;;;;;6.40;4.40;;;8.80;99.90;;;;;;5492140;26;20224;-90
2024/04/19 05:23:14;;;;;;;5.27;4.27;;;8.80;99.90;;;;;;5492574;26;20257;-86
2024/04/19 05:25:40;;;;;;;4.80;4.30;;;8.80;99.90;;;;;;5491935;26;20232;-84
2024/04/19 05:28:06;;;;;;;4.90;4.40;;;8.80;99.90;;;;;;5492404;26;20216;-86
2024/04/19 05:30:32;;;;;;;6.13;4.77;;;8.80;99.90;;;;;;5492310;26;20268;-86
2024/04/19 05:32:58;;;;;;;6.10;4.67;;;8.90;99.90;;;;;;5493550;26;20262;-86
2024/04/19 05:35:26;;;;;;;7.47;5.40;;;8.90;99.90;;;;;;5491512;26;20213;-85
2024/04/19 05:37:55;;;;;;;7.20;6.00;;;8.90;99.90;;;;;;5492596;26;20220;-87
2024/04/19 05:40:23;;;;;;;7.83;6.07;;;9.00;99.90;;;;;;5490537;26;20243;-87
2024/04/19 05:42:52;;;;;;;7.70;5.97;;;9.00;99.90;;;;;;5492650;26;20337;-89
2024/04/19 05:45:19;;;;;;;7.57;6.00;;;9.10;99.90;;;;;;5490341;26;20212;-87
2024/04/19 05:47:45;;;;;;;7.53;6.30;;;9.20;99.90;;;;;;5490398;26;20232;-89
2024/04/19 05:50:11;;;;;;;8.93;6.80;;;9.20;99.90;;;;;;5491199;26;20275;-89
2024/04/19 05:52:39;;;;;;;8.00;7.00;;;9.30;99.90;;;;;;5493599;26;20232;-87
2024/04/19 05:55:05;;;;;;;9.53;8.07;;;9.20;99.90;;;;;;5478620;26;20225;-86
2024/04/19 05:57:32;;;;;;;10.07;8.00;;;9.20;99.90;;;;;;5454081;26;20278;-88
2024/04/19 05:59:58;;;;;;;9.83;8.40;;;9.20;99.90;;;;;;5456523;26;20218;-92
2024/04/19 06:02:25;;;;;;;10.20;9.10;;;9.20;99.90;;;;;;5455006;26;20286;-89
2024/04/19 06:04:51;;;;;;;9.43;8.07;;;9.30;99.90;;;;;;5455395;26;20221;-93
2024/04/19 06:07:21;;;;;;;10.13;8.53;;;9.40;99.90;;;;;;5456226;26;20317;-86
2024/04/19 06:09:46;;;;;;;10.53;9.43;;;9.40;99.90;;;;;;5455422;26;20309;-87
2024/04/19 06:12:12;;;;;;;12.17;9.40;;;9.40;99.90;;;;;;5484172;26;20244;-87
2024/04/19 06:14:38;;;;;;;11.10;9.43;;;9.40;99.90;;;;;;5491178;26;20267;-86
2024/04/19 06:17:04;;;;;;;10.90;9.73;;;9.40;99.90;;;;;;5456257;26;20785;-88
2024/04/19 06:19:29;;;;;;;12.50;11.20;;;9.40;99.90;;;;;;5473668;26;20274;-88
2024/04/19 06:21:55;;;;;;;12.17;10.80;;;9.40;99.90;;;;;;5487913;26;20228;-87
2024/04/19 06:24:21;;;;;;;15.03;11.23;;;9.50;99.90;;;;;;5492530;26;20259;-87
2024/04/19 06:26:46;;;;;;;12.13;10.67;;;9.60;99.90;;;;;;5491487;26;20229;-87
2024/04/19 06:29:13;;;;;;;12.17;10.87;;;9.70;99.90;;;;;;5489654;26;20247;-88
2024/04/19 06:31:39;;;;;;;12.90;10.30;;;9.80;99.90;;;;;;5490661;26;20209;-89
2024/04/19 06:34:05;;;;;;;14.00;10.40;;;9.80;99.90;;;;;;5491762;26;20356;-88
2024/04/19 06:36:31;;;;;;;13.27;11.00;;;9.70;99.90;;;;;;5492967;26;20224;-88
2024/04/19 06:39:05;;;;;;;15.40;11.37;;;9.70;99.90;;;;;;5490837;26;20221;-89
2024/04/19 06:41:32;;;;;;;13.63;9.87;;;9.80;99.90;;;;;;5492057;26;20232;-90
2024/04/19 06:43:58;;;;;;;15.60;11.80;;;9.80;99.90;;;;;;5493422;26;20587;-88
2024/04/19 06:46:23;;;;;;;14.73;10.97;;;9.80;99.90;;;;;;5491648;26;20232;-89
2024/04/19 06:48:49;;;;;;;15.87;10.70;;;9.90;99.90;;;;;;5491299;26;20267;-90
2024/04/19 06:51:15;;;;;;;15.27;9.93;;;9.80;99.90;;;;;;5492164;26;20263;-88
2024/04/19 06:53:41;;;;;;;12.97;10.13;;;9.90;99.90;;;;;;5490364;26;20236;-88
2024/04/19 06:56:08;;;;;;;12.43;9.57;;;9.90;99.90;;;;;;5490806;26;20246;-87
2024/04/19 06:58:34;;;;;;;10.40;8.47;;;9.90;99.90;;;;;;5489702;26;20216;-88
2024/04/19 07:01:07;;;;;;;17.13;9.90;;;9.90;99.90;;;;;;5490144;26;20549;-88
2024/04/19 07:03:35;;;;;;;10.30;8.03;;;9.90;99.90;;;;;;5490728;26;20254;-88
2024/04/19 07:06:13;;;;;;;13.37;9.57;;;10.00;99.90;;;;;;5491548;26;20220;-88
2024/04/19 07:08:40;;;;;;;15.50;8.90;;;10.00;99.90;;;;;;5490271;26;20574;-88
2024/04/19 07:11:06;;;;;;;13.53;9.07;;;10.00;99.90;;;;;;5491621;26;20212;-89
2024/04/19 07:13:33;;;;;;;12.63;8.63;;;10.10;99.90;;;;;;5489084;26;20232;-88
2024/04/19 07:15:59;;;;;;;14.07;9.10;;;10.10;99.90;;;;;;5492546;26;20263;-88
2024/04/19 07:18:25;;;;;;;16.20;9.57;;;10.20;99.90;;;;;;5493293;26;20236;-89
2024/04/19 07:20:52;;;;;;;10.20;8.83;;;10.20;99.90;;;;;;5493334;26;20290;-89
2024/04/19 07:23:18;;;;;;;12.43;9.17;;;10.20;99.90;;;;;;5489890;26;20301;-89
2024/04/19 07:25:44;;;;;;;10.37;8.50;;;10.30;99.90;;;;;;5492231;26;20262;-88
2024/04/19 07:28:10;;;;;;;12.90;11.60;;;10.30;99.90;;;;;;5492641;26;20670;-88
2024/04/19 07:30:36;;;;;;;25.73;16.47;;;10.30;99.90;;;;;;5491167;26;20224;-90
2024/04/19 07:33:02;;;;;;;14.93;12.07;;;10.40;99.90;;;;;;5490014;26;20243;-87
2024/04/19 07:35:27;;;;;;;11.77;8.70;;;10.30;99.90;;;;;;5493766;26;20216;-87
2024/04/19 07:37:53;;;;;;;11.93;7.43;;;10.40;99.90;;;;;;5491333;26;20325;-88
2024/04/19 07:40:19;;;;;;;18.50;9.03;;;10.40;99.90;;;;;;5492117;26;20212;-89
2024/04/19 07:42:45;;;;;;;15.60;12.77;;;10.30;99.90;;;;;;5492500;26;20242;-89
2024/04/19 07:45:12;;;;;;;19.23;13.90;;;10.50;99.90;;;;;;5491537;26;20221;-90
2024/04/19 07:47:38;;;;;;;29.70;17.40;;;10.40;99.90;;;;;;5492080;26;20224;-88
2024/04/19 07:50:04;;;;;;;21.97;13.60;;;10.50;99.90;;;;;;5490422;26;20292;-87
2024/04/19 07:52:31;;;;;;;9.77;6.87;;;10.50;99.90;;;;;;5491452;26;20335;-89
2024/04/19 07:54:56;;;;;;;11.83;6.90;;;10.50;99.90;;;;;;5491925;26;20224;-87
2024/04/19 07:57:22;;;;;;;12.83;8.63;;;10.50;99.90;;;;;;5490316;26;20224;-87
2024/04/19 07:59:49;;;;;;;13.60;10.27;;;10.50;99.90;;;;;;5490009;26;20301;-88
2024/04/19 08:02:17;;;;;;;15.90;12.07;;;10.50;99.90;;;;;;5486786;26;20648;-89
2024/04/19 08:04:43;;;;;;;29.07;22.90;;;10.60;99.90;;;;;;5491724;26;20304;-89
2024/04/19 08:07:09;;;;;;;74.17;33.27;;;10.60;99.90;;;;;;5489464;26;20216;-88
2024/04/19 08:09:35;;;;;;;15.10;10.20;;;10.70;99.90;;;;;;5490346;26;20256;-88
2024/04/19 08:12:03;;;;;;;12.80;8.30;;;10.70;99.90;;;;;;5489952;26;20212;-89
2024/04/19 08:14:28;;;;;;;9.63;8.00;;;10.70;99.90;;;;;;5490727;26;20212;-89
2024/04/19 08:16:54;;;;;;;9.80;8.10;;;10.80;99.90;;;;;;5489387;26;20767;-88
2024/04/19 08:19:20;;;;;;;10.57;7.47;;;10.70;99.90;;;;;;5490597;26;20351;-88
2024/04/19 08:21:47;;;;;;;13.93;8.47;;;10.80;99.90;;;;;;5492053;26;20224;-89
2024/04/19 08:24:12;;;;;;;9.00;7.50;;;10.80;99.90;;;;;;5489951;26;20212;-88
2024/04/19 08:26:38;;;;;;;12.57;7.27;;;10.90;99.90;;;;;;5491667;26;20303;-88
2024/04/19 08:29:04;;;;;;;14.80;7.53;;;10.80;99.90;;;;;;5491080;26;20228;-88
2024/04/19 08:31:29;;;;;;;10.40;7.73;;;10.80;99.90;;;;;;5490258;26;20216;-89
2024/04/19 08:33:55;;;;;;;12.83;8.17;;;10.80;99.90;;;;;;5490505;26;20212;-89
2024/04/19 08:36:22;;;;;;;9.57;7.47;;;10.90;99.90;;;;;;5491011;26;20221;-89
2024/04/19 08:38:48;;;;;;;8.83;7.23;;;10.90;99.90;;;;;;5488949;26;20220;-87
2024/04/19 08:41:16;;;;;;;11.20;7.73;;;10.90;99.90;;;;;;5491983;26;20213;-89
2024/04/19 08:43:45;;;;;;;10.03;7.20;;;10.80;99.90;;;;;;5490410;26;20301;-88
2024/04/19 08:46:11;;;;;;;9.17;7.77;;;10.90;99.90;;;;;;5490360;26;20653;-88
2024/04/19 08:48:40;;;;;;;10.23;7.00;;;10.90;99.90;;;;;;5490051;26;20246;-89
2024/04/19 08:51:07;;;;;;;9.87;7.17;;;10.90;99.90;;;;;;5489546;26;20259;-89
2024/04/19 08:53:33;;;;;;;10.33;7.63;;;10.90;99.90;;;;;;5488965;26;20220;-88
2024/04/19 08:56:00;;;;;;;8.83;6.67;;;10.90;99.90;;;;;;5489290;26;20220;-89
2024/04/19 08:58:27;;;;;;;10.43;7.33;;;10.90;99.90;;;;;;5489979;26;20228;-89
2024/04/19 09:00:53;;;;;;;11.60;10.30;;;11.00;99.90;;;;;;5490302;26;20267;-90
2024/04/19 09:03:19;;;;;;;12.43;10.53;;;11.00;99.90;;;;;;5488334;26;20224;-89
2024/04/19 09:05:45;;;;;;;39.03;26.23;;;11.00;99.90;;;;;;5491964;26;20259;-89
2024/04/19 09:08:12;;;;;;;9.83;5.60;;;11.00;99.90;;;;;;5489745;26;20251;-88
2024/04/19 09:10:38;;;;;;;10.17;6.00;;;11.00;99.90;;;;;;5489343;26;20254;-89
2024/04/19 09:13:03;;;;;;;11.37;5.90;;;11.00;99.90;;;;;;5491930;26;20224;-87
2024/04/19 09:15:30;;;;;;;8.07;3.90;;;10.90;99.90;;;;;;5489846;26;20316;-88
2024/04/19 09:17:56;;;;;;;7.07;4.70;;;10.90;99.90;;;;;;5489161;26;20286;-87
2024/04/19 09:20:25;;;;;;;11.37;5.77;;;10.90;99.90;;;;;;5488743;26;20220;-88
2024/04/19 09:22:51;;;;;;;19.33;12.07;;;10.80;99.90;;;;;;5489515;26;20248;-89
2024/04/19 09:25:17;;;;;;;27.57;15.03;;;11.00;99.90;;;;;;5489182;26;20608;-88
2024/04/19 09:27:44;;;;;;;21.50;13.10;;;11.10;99.90;;;;;;5490133;26;20221;-88
2024/04/19 09:30:12;;;;;;;9.47;3.87;;;11.20;99.90;;;;;;5489538;26;20244;-90
2024/04/19 09:32:38;;;;;;;8.07;3.80;;;11.30;99.90;;;;;;5489305;26;20256;-89
2024/04/19 09:35:05;;;;;;;8.97;3.40;;;11.40;99.90;;;;;;5488367;26;20309;-88
2024/04/19 09:37:31;;;;;;;9.73;5.53;;;11.20;99.90;;;;;;5487785;26;20221;-88
2024/04/19 09:39:57;;;;;;;9.70;6.93;;;11.20;99.90;;;;;;5488689;26;20217;-90
2024/04/19 09:42:24;;;;;;;10.47;5.20;;;11.30;99.90;;;;;;5490160;26;20224;-89
2024/04/19 09:44:51;;;;;;;25.77;11.43;;;11.10;99.90;;;;;;5489863;26;20669;-89
2024/04/19 09:47:17;;;;;;;10.83;5.13;;;11.20;99.90;;;;;;5488080;26;20283;-88
2024/04/19 09:49:46;;;;;;;7.33;3.70;;;11.20;99.90;;;;;;5487777;26;20329;-88
2024/04/19 09:52:21;;;;;;;8.27;3.07;;;11.30;99.90;;;;;;5487657;26;20281;-89
2024/04/19 09:55:01;;;;;;;5.57;2.93;;;11.20;99.90;;;;;;5489041;26;20235;-89
2024/04/19 09:57:29;;;;;;;7.30;4.33;;;11.10;99.90;;;;;;5488668;26;20263;-91
2024/04/19 09:59:56;;;;;;;7.63;3.90;;;11.10;99.90;;;;;;5491607;26;20216;-88
2024/04/19 10:02:24;;;;;;;11.07;3.87;;;11.10;99.90;;;;;;5460585;26;20298;-88
2024/04/19 10:04:50;;;;;;;6.33;2.97;;;11.20;99.90;;;;;;5491302;26;20561;-90
2024/04/19 10:07:17;;;;;;;8.63;3.83;;;11.10;99.90;;;;;;5494466;26;20215;-88
2024/04/19 10:09:45;;;;;;;9.40;3.60;;;11.20;99.90;;;;;;5492229;26;20220;-90
2024/04/19 10:12:14;;;;;;;6.90;3.27;;;11.30;99.90;;;;;;5493068;26;20259;-89
2024/04/19 10:14:40;;;;;;;8.63;3.20;;;11.30;99.90;;;;;;5492173;26;20669;-88
2024/04/19 10:17:07;;;;;;;7.63;2.87;;;11.30;99.90;;;;;;5491698;26;20294;-89
2024/04/19 10:19:35;;;;;;;11.20;3.60;;;11.30;99.90;;;;;;5492697;26;20243;-88
2024/04/19 10:22:04;;;;;;;8.63;3.40;;;11.30;99.90;;;;;;5491544;26;20243;-89
2024/04/19 10:24:30;;;;;;;8.23;3.80;;;11.40;99.90;;;;;;5492701;26;20267;-88
2024/04/19 10:26:56;;;;;;;10.67;4.20;;;11.40;99.90;;;;;;5491880;26;20259;-89
2024/04/19 10:29:26;;;;;;;12.10;3.77;;;11.40;99.90;;;;;;5490801;26;20764;-88
2024/04/19 10:31:53;;;;;;;5.73;2.93;;;11.30;99.90;;;;;;5489918;26;20236;-88
2024/04/19 10:34:21;;;;;;;4.70;1.70;;;11.10;99.90;;;;;;5491253;26;20220;-87
2024/04/19 10:36:47;;;;;;;5.70;1.97;;;10.80;99.90;;;;;;5494130;26;20263;-87
2024/04/19 10:39:13;;;;;;;5.70;1.97;;;10.70;99.90;;;;;;5492947;26;20593;-88
2024/04/19 10:41:52;;;;;;;6.10;1.83;;;10.60;99.90;;;;;;5491924;26;20216;-89
2024/04/19 10:44:18;;;;;;;4.90;1.67;;;10.60;99.90;;;;;;5493959;26;20220;-90
2024/04/19 10:46:46;;;;;;;6.30;1.83;;;10.40;99.90;;;;;;5498762;26;20228;-89
2024/04/19 10:49:11;;;;;;;6.00;2.77;;;10.40;99.90;;;;;;5500809;26;20690;-88
2024/04/19 10:51:39;;;;;;;8.67;2.50;;;10.30;99.90;;;;;;5493427;26;20220;-88
2024/04/19 10:54:06;;;;;;;6.77;2.47;;;10.30;99.90;;;;;;5491999;26;20231;-88
2024/04/19 10:56:31;;;;;;;4.83;2.10;;;10.30;99.90;;;;;;5492677;26;20216;-86
2024/04/19 10:58:57;;;;;;;6.03;2.40;;;10.20;99.90;;;;;;5490546;26;20320;-88
2024/04/19 11:01:23;;;;;;;6.43;2.30;;;10.20;99.90;;;;;;5491256;26;20228;-87
2024/04/19 11:03:50;;;;;;;6.10;2.10;;;10.20;99.90;;;;;;5490423;26;20259;-88
2024/04/19 11:06:17;;;;;;;9.40;2.50;;;10.20;99.90;;;;;;5490110;26;20304;-88
2024/04/19 11:08:43;;;;;;;4.50;2.43;;;10.20;99.90;;;;;;5489942;26;20212;-89
2024/04/19 11:11:09;;;;;;;6.43;2.30;;;10.20;99.90;;;;;;5492471;26;20290;-86
2024/04/19 11:13:38;;;;;;;7.80;2.17;;;10.30;99.90;;;;;;5491427;26;20236;-88
2024/04/19 11:16:04;;;;;;;7.93;2.63;;;10.40;99.90;;;;;;5491337;26;20216;-88
2024/04/19 11:18:31;;;;;;;8.23;2.90;;;10.50;99.90;;;;;;5489260;26;20274;-88
2024/04/19 11:20:57;;;;;;;5.07;2.50;;;10.70;99.90;;;;;;5493272;26;20276;-88
2024/04/19 11:23:23;;;;;;;7.73;2.20;;;10.80;99.90;;;;;;5491690;26;20560;-89
2024/04/19 11:25:48;;;;;;;6.53;2.27;;;10.80;99.90;;;;;;5491695;26;20254;-89
2024/04/19 11:28:15;;;;;;;7.37;2.80;;;10.80;99.90;;;;;;5491800;26;20243;-89
2024/04/19 11:31:10;;;;;;;5.23;3.10;;;10.90;99.90;;;;;;5602868;25;20578;-89
2024/04/19 11:33:35;;;;;;;8.63;3.20;;;10.90;99.90;;;;;;5514084;25;20217;-88
2024/04/19 11:36:11;;;;;;;6.93;2.97;;;10.90;99.90;;;;;;5547357;25;20261;-88
2024/04/19 11:38:38;;;;;;;6.27;3.20;;;11.00;99.90;;;;;;5548472;25;20279;-88
2024/04/19 11:41:04;;;;;;;7.30;2.93;;;11.00;99.90;;;;;;5547837;25;20303;-89
2024/04/19 11:43:33;;;;;;;4.77;2.23;;;11.10;99.90;;;;;;5543465;25;20249;-89
2024/04/19 11:45:58;;;;;;;6.27;2.90;;;11.00;99.90;;;;;;5543994;25;20552;-89
2024/04/19 11:48:26;;;;;;;5.73;2.17;;;11.00;99.90;;;;;;5546504;25;20252;-89
2024/04/19 11:50:57;;;;;;;8.67;2.53;;;10.80;99.90;;;;;;5546472;25;20713;-90
2024/04/19 11:53:23;;;;;;;6.47;2.40;;;10.80;99.90;;;;;;5544883;25;20223;-89
2024/04/19 11:55:50;;;;;;;4.43;2.23;;;10.90;99.90;;;;;;5546095;25;20242;-88
2024/04/19 11:58:17;;;;;;;5.73;2.53;;;10.90;99.90;;;;;;5544042;25;20210;-88
2024/04/19 12:00:43;;;;;;;6.57;2.60;;;10.80;99.90;;;;;;5544754;25;20298;-87
2024/04/19 12:03:09;;;;;;;8.13;2.60;;;10.80;99.90;;;;;;5543882;25;20219;-89
2024/04/19 12:05:36;;;;;;;9.87;2.90;;;10.70;99.90;;;;;;5544627;25;20245;-89
2024/04/19 12:08:02;;;;;;;6.63;2.93;;;10.70;99.90;;;;;;5544525;25;20218;-88
2024/04/19 12:10:29;;;;;;;6.90;2.43;;;10.60;99.90;;;;;;5545628;25;20297;-89
2024/04/19 12:12:55;;;;;;;6.33;2.47;;;10.60;99.90;;;;;;5544513;25;20239;-89
2024/04/19 12:15:20;;;;;;;5.63;2.17;;;10.80;99.90;;;;;;5543728;25;20214;-88
2024/04/19 12:17:47;;;;;;;8.43;2.70;;;10.90;99.90;;;;;;5543570;25;20226;-88
2024/04/19 12:20:13;;;;;;;5.97;2.43;;;10.90;99.90;;;;;;5545140;25;20334;-89
2024/04/19 12:22:39;;;;;;;8.20;2.97;;;11.00;99.90;;;;;;5534386;25;20235;-90
2024/04/19 12:25:05;;;;;;;8.53;3.47;;;11.00;99.90;;;;;;5521553;25;20314;-88
2024/04/19 12:27:31;;;;;;;7.40;2.93;;;11.10;99.90;;;;;;5506969;26;20286;-88
2024/04/19 12:29:57;;;;;;;9.87;3.23;;;11.20;99.90;;;;;;5507554;26;20240;-88
2024/04/19 12:32:22;;;;;;;9.90;3.47;;;11.20;99.90;;;;;;5506966;25;20243;-88
2024/04/19 12:34:48;;;;;;;9.87;3.07;;;11.30;99.90;;;;;;5509905;26;20227;-89
2024/04/19 12:37:15;;;;;;;9.17;3.10;;;11.20;99.90;;;;;;5508990;25;20676;-91
2024/04/19 12:39:41;;;;;;;6.17;2.33;;;11.10;99.90;;;;;;5507043;26;20254;-92
2024/04/19 12:42:07;;;;;;;6.87;1.97;;;11.20;99.90;;;;;;5495683;26;20212;-90
2024/04/19 12:44:33;;;;;;;6.10;2.17;;;11.10;99.90;;;;;;5492495;26;20221;-90
2024/04/19 12:46:58;;;;;;;9.13;2.80;;;11.10;99.90;;;;;;5490024;26;20220;-92
2024/04/19 12:49:25;;;;;;;9.67;2.70;;;11.20;99.90;;;;;;5491978;26;20697;-89
2024/04/19 12:51:54;;;;;;;10.63;3.30;;;11.30;99.90;;;;;;5494354;26;20680;-92